Terminal Aerodrome Forecast
Issued by NWS Corpus Christi, TX

Home | Current Version | Previous Version | Text Only | Print | Product List | Glossary On
Versions: 1 2 3 4 5 6 7 8 9 10 11 12 13 14 15
193
FTUS44 KCRP 202343
TAFVCT
TAF
KVCT 202343Z 2100/2124 12006KT P6SM BKN050
     FM210400 15004KT P6SM BKN040
     FM210900 VRB03KT 4SM BR BKN025
     FM211500 24005KT P6SM SCT025 SCT150=

USA.gov is the U.S. government's official web portal to all federal, state and local government web resources and services.